Time;durP1;ratioP1;P1;durP2;ratioP2;P2;SDS_P1;SDS_P2;PMS_P1;PMS_P2;Temp;Humidity;BMP_temperature;BMP_pressure;BME280_temperature;BME280_humidity;BME280_pressure;Samples;Min_cycle;Max_cycle;Signal;HPM_P1;HPM_P2
2022/04/09 00:01:18;;;;;;;12.60;9.30;;;;;;;8.40;69.28;96038.65;110071;1248;68509;-64
2022/04/09 00:03:48;;;;;;;11.90;8.60;;;;;;;8.43;69.11;96036.89;109849;1247;68530;-66
2022/04/09 00:06:18;;;;;;;10.80;8.70;;;;;;;8.45;69.34;96028.90;110111;1247;59755;-65
2022/04/09 00:08:47;;;;;;;;;;;;;;;8.47;69.09;96031.14;110066;1247;59702;-65
2022/04/09 00:11:18;;;;;;;11.00;9.40;;;;;;;8.49;69.13;96028.73;109887;1248;71561;-66
2022/04/09 00:13:48;;;;;;;10.10;8.60;;;;;;;8.53;68.53;96032.01;109928;1248;69358;-68
2022/04/09 00:16:21;;;;;;;10.30;8.40;;;;;;;8.58;68.47;96027.77;110086;1248;68618;-64
2022/04/09 00:18:51;;;;;;;14.10;9.70;;;;;;;8.62;68.14;96015.02;110103;1247;59703;-68
2022/04/09 00:21:21;;;;;;;10.30;8.70;;;;;;;8.66;68.47;96018.34;109846;1251;59715;-61
2022/04/09 00:23:51;;;;;;;11.30;9.10;;;;;;;8.69;68.15;96014.77;110093;1247;70001;-62
2022/04/09 00:26:22;;;;;;;10.70;9.00;;;;;;;8.72;68.35;96012.80;109886;1248;69356;-63
2022/04/09 00:28:52;;;;;;;10.20;8.50;;;;;;;8.75;68.26;96012.93;110068;1247;69385;-61
2022/04/09 00:31:23;;;;;;;10.90;8.60;;;;;;;8.78;68.66;96014.73;110029;1247;59688;-61
2022/04/09 00:33:53;;;;;;;11.20;9.20;;;;;;;8.80;68.36;96014.72;109790;1250;59703;-64
2022/04/09 00:36:24;;;;;;;11.00;9.20;;;;;;;8.82;67.90;96010.05;110016;1247;72104;-60
2022/04/09 00:38:55;;;;;;;11.50;9.20;;;;;;;8.84;67.73;96012.06;109691;1251;69383;-63
2022/04/09 00:41:26;;;;;;;12.40;8.70;;;;;;;8.88;67.62;96010.90;109949;1247;68835;-62
2022/04/09 00:43:57;;;;;;;10.80;8.20;;;;;;;8.90;67.68;96013.41;110008;1247;59678;-61
2022/04/09 00:46:28;;;;;;;9.10;8.00;;;;;;;8.94;67.38;96013.14;109864;1248;60075;-61
2022/04/09 00:48:59;;;;;;;10.30;8.80;;;;;;;8.98;67.42;96014.01;109967;1247;71581;-61
2022/04/09 00:51:28;;;;;;;;;;;;;;;9.02;67.10;96016.80;109793;1247;69269;-64
2022/04/09 00:54:00;;;;;;;13.90;10.70;;;;;;;9.04;67.15;96016.26;110000;1248;68534;-62
2022/04/09 00:56:29;;;;;;;12.00;9.50;;;;;;;9.03;66.85;96018.89;110017;1247;59797;-61
2022/04/09 00:59:15;;;;;;;11.90;9.30;;;;;;;9.00;66.91;96016.08;109939;1247;59766;-61
2022/04/09 01:01:46;;;;;;;11.40;9.90;;;;;;;8.98;68.47;96014.86;110021;1247;71328;-62
2022/04/09 01:04:18;;;;;;;11.00;8.50;;;;;;;8.97;69.15;96022.63;109936;1248;69932;-65
2022/04/09 01:06:48;;;;;;;11.30;7.70;;;;;;;8.96;68.87;96022.22;109801;1251;68737;-64
2022/04/09 01:09:18;;;;;;;8.90;7.40;;;;;;;8.94;67.85;96018.83;110030;1247;59643;-62
2022/04/09 01:11:50;;;;;;;9.70;7.20;;;;;;;8.95;67.40;96012.13;109788;1251;59720;-64
2022/04/09 01:14:20;;;;;;;11.30;10.10;;;;;;;8.97;67.04;95998.27;109807;1250;70699;-66
2022/04/09 01:16:51;;;;;;;8.30;6.50;;;;;;;8.98;67.95;96005.88;109634;1250;68500;-63
2022/04/09 01:19:21;;;;;;;13.90;9.30;;;;;;;8.95;69.42;96005.90;109718;1250;69695;-64
2022/04/09 01:21:54;;;;;;;9.90;8.50;;;;;;;8.91;68.72;95998.60;109962;1247;59741;-66
2022/04/09 01:24:25;;;;;;;11.80;9.40;;;;;;;8.86;68.79;95995.04;109809;1251;59749;-61
2022/04/09 01:26:58;;;;;;;13.40;10.20;;;;;;;8.79;67.66;95981.77;109860;1250;71435;-65
2022/04/09 01:29:35;;;;;;;12.70;10.70;;;;;;;8.71;67.37;95980.20;109802;1250;68477;-63
2022/04/09 01:32:07;;;;;;;11.10;9.50;;;;;;;8.64;67.59;95981.17;109714;1248;67743;-63
2022/04/09 01:34:39;;;;;;;12.30;9.70;;;;;;;8.58;67.44;95981.23;109897;1248;59797;-62
2022/04/09 01:37:10;;;;;;;13.30;10.20;;;;;;;8.50;67.82;95976.52;109729;1248;59721;-62
2022/04/09 01:39:40;;;;;;;12.20;10.00;;;;;;;8.43;69.62;95971.03;109675;1250;71425;-63
2022/04/09 01:42:11;;;;;;;13.70;10.50;;;;;;;8.37;70.56;95963.77;109931;1247;68703;-63
2022/04/09 01:44:45;;;;;;;14.60;10.90;;;;;;;8.29;70.80;95958.88;109782;1248;68619;-63
2022/04/09 01:47:16;;;;;;;12.40;10.70;;;;;;;8.22;71.24;95954.25;109859;1247;59743;-62
2022/04/09 01:49:46;;;;;;;;;;;;;;;8.17;71.17;95952.11;109912;1248;59718;-64
2022/04/09 01:52:15;;;;;;;15.30;12.20;;;;;;;8.11;71.55;95947.77;110045;1247;71508;-62
2022/04/09 01:54:45;;;;;;;;;;;;;;;8.06;72.05;95947.52;110008;1248;68591;-62
2022/04/09 01:57:16;;;;;;;14.00;10.90;;;;;;;8.02;72.80;95951.14;110030;1247;68478;-63
2022/04/09 01:59:48;;;;;;;12.50;9.60;;;;;;;8.01;72.30;95945.17;109978;1250;59780;-62
2022/04/09 02:02:19;;;;;;;11.90;9.90;;;;;;;8.02;71.24;95942.65;110028;1248;59748;-63
2022/04/09 02:04:49;;;;;;;11.30;8.70;;;;;;;8.04;70.51;95944.54;110029;1247;71460;-64
2022/04/09 02:07:20;;;;;;;10.00;8.00;;;;;;;8.06;69.88;95937.63;109987;1248;68713;-62
2022/04/09 02:09:50;;;;;;;10.20;7.40;;;;;;;8.09;69.66;95932.13;110026;1247;68462;-64
2022/04/09 02:12:20;;;;;;;13.00;9.60;;;;;;;8.13;70.17;95932.47;109866;1250;59726;-64
2022/04/09 02:14:51;;;;;;;11.80;9.20;;;;;;;8.16;70.25;95931.66;109871;1248;59732;-62
2022/04/09 02:17:21;;;;;;;;;;;;;;;8.17;69.87;95930.04;109799;1248;72148;-62
2022/04/09 02:19:51;;;;;;;11.10;9.80;;;;;;;8.18;69.77;95931.53;109851;1247;67824;-64
2022/04/09 02:22:23;;;;;;;10.80;8.70;;;;;;;8.22;71.71;95931.20;109841;1248;68643;-63
2022/04/09 02:24:53;;;;;;;12.20;8.40;;;;;;;8.21;70.88;95930.60;110022;1247;59653;-62
2022/04/09 02:27:24;;;;;;;8.40;7.40;;;;;;;8.21;70.37;95925.03;110083;1247;59751;-62
2022/04/09 02:29:53;;;;;;;11.30;8.90;;;;;;;8.22;70.49;95928.41;110015;1248;69805;-64
2022/04/09 02:32:24;;;;;;;11.70;9.30;;;;;;;8.25;70.67;95936.67;109921;1248;69240;-64
2022/04/09 02:34:56;;;;;;;13.60;10.10;;;;;;;8.26;70.66;95937.65;110004;1248;69432;-63
2022/04/09 02:37:29;;;;;;;12.30;9.70;;;;;;;8.24;70.82;95932.05;110006;1247;59759;-65
2022/04/09 02:39:59;;;;;;;12.10;9.40;;;;;;;8.24;69.84;95929.11;109991;1249;60205;-62
2022/04/09 02:42:29;;;;;;;11.10;9.40;;;;;;;8.24;69.67;95930.02;109953;1249;71763;-62
2022/04/09 02:45:00;;;;;;;14.30;9.40;;;;;;;8.25;69.25;95927.95;109830;1247;68677;-63
2022/04/09 02:47:32;;;;;;;10.80;8.40;;;;;;;8.27;69.04;95928.52;109833;1250;69275;-61
2022/04/09 02:50:04;;;;;;;9.40;8.30;;;;;;;8.27;69.76;95923.98;109998;1248;59699;-62
2022/04/09 02:52:36;;;;;;;11.70;9.40;;;;;;;8.27;69.52;95918.11;109784;1250;59733;-62
2022/04/09 02:55:08;;;;;;;10.00;7.70;;;;;;;8.27;69.10;95919.52;109703;1250;71576;-62
2022/04/09 02:57:40;;;;;;;11.00;9.00;;;;;;;8.27;69.81;95919.48;109961;1247;69374;-62
2022/04/09 03:00:13;;;;;;;12.30;10.00;;;;;;;8.27;68.92;95917.62;109806;1249;68649;-62
2022/04/09 03:02:43;;;;;;;12.20;9.00;;;;;;;8.26;68.39;95915.21;109693;1250;59731;-64
2022/04/09 03:05:22;;;;;;;7.60;6.80;;;;;;;8.25;69.25;95915.65;109804;1249;59710;-63
2022/04/09 03:07:52;;;;;;;13.70;10.80;;;;;;;8.23;68.51;95906.46;109835;1248;71546;-62
2022/04/09 03:10:23;;;;;;;14.80;13.00;;;;;;;8.21;68.45;95901.63;109640;1250;69613;-65
2022/04/09 03:12:53;;;;;;;14.20;11.40;;;;;;;8.16;69.45;95899.73;109949;1248;68855;-64
2022/04/09 03:15:23;;;;;;;14.90;12.90;;;;;;;8.13;70.08;95900.70;109823;1248;59741;-67
2022/04/09 03:17:53;;;;;;;15.80;12.30;;;;;;;8.10;70.83;95888.98;110009;1247;59724;-63
2022/04/09 03:20:25;;;;;;;14.20;11.10;;;;;;;8.07;71.54;95887.38;110021;1247;71514;-64
2022/04/09 03:22:55;;;;;;;14.80;11.80;;;;;;;8.05;71.06;95892.70;109938;1249;69385;-64
2022/04/09 03:25:42;;;;;;;13.70;11.20;;;;;;;8.02;71.78;95894.02;109733;1247;68670;-65
2022/04/09 03:28:15;;;;;;;14.60;11.20;;;;;;;7.99;72.35;95892.92;109637;1248;60184;-65
2022/04/09 03:30:45;;;;;;;14.40;11.80;;;;;;;7.96;72.63;95892.31;110033;1248;59757;-67
2022/04/09 03:33:18;;;;;;;13.20;9.60;;;;;;;7.93;72.09;95891.04;109827;1247;70807;-67
2022/04/09 03:35:50;;;;;;;11.90;10.50;;;;;;;7.90;71.37;95887.29;110053;1250;69233;-64
2022/04/09 03:38:21;;;;;;;;;;;;;;;7.87;71.75;95892.52;109881;1249;68742;-65
2022/04/09 03:40:54;;;;;;;12.40;8.60;;;;;;;7.86;71.38;95894.23;110034;1247;59685;-63
2022/04/09 03:43:31;;;;;;;11.20;7.80;;;;;;;7.84;71.73;95895.02;110041;1247;59634;-63
2022/04/09 03:46:03;;;;;;;11.00;7.80;;;;;;;7.83;70.82;95889.77;109832;1248;71514;-61
2022/04/09 03:48:33;;;;;;;12.10;9.70;;;;;;;7.80;71.11;95883.80;109864;1248;68865;-63
2022/04/09 03:51:03;;;;;;;;;;;;;;;7.77;71.12;95890.70;109981;1247;68863;-63
2022/04/09 03:53:34;;;;;;;5.70;4.60;;;;;;;7.71;70.82;95892.05;109669;1250;59736;-63
2022/04/09 03:56:04;;;;;;;8.90;7.60;;;;;;;7.68;70.27;95894.42;110009;1247;59717;-62
2022/04/09 03:58:38;;;;;;;9.60;7.80;;;;;;;7.65;69.87;95893.07;109677;1248;70759;-62
2022/04/09 04:01:10;;;;;;;10.00;8.00;;;;;;;7.62;70.20;95894.53;109975;1247;68622;-64
2022/04/09 04:03:40;;;;;;;12.90;9.40;;;;;;;7.58;69.67;95902.65;109917;1248;68995;-62
2022/04/09 04:06:10;;;;;;;9.90;7.40;;;;;;;7.54;70.45;95904.10;109789;1248;59667;-65
2022/04/09 04:08:40;;;;;;;11.90;9.90;;;;;;;7.48;71.01;95908.92;109849;1247;59775;-67
2022/04/09 04:11:13;;;;;;;13.30;10.60;;;;;;;7.41;72.09;95906.89;109998;1247;70786;-67
2022/04/09 04:13:44;;;;;;;13.70;11.10;;;;;;;7.34;71.50;95910.23;110034;1247;69378;-64
2022/04/09 04:16:14;;;;;;;11.60;9.50;;;;;;;7.28;71.77;95912.80;109841;1249;69461;-66
2022/04/09 04:18:45;;;;;;;12.70;9.90;;;;;;;7.24;71.50;95914.68;109843;1247;59770;-63
2022/04/09 04:21:15;;;;;;;11.40;9.60;;;;;;;7.24;71.42;95919.42;109852;1248;59701;-65
2022/04/09 04:23:48;;;;;;;10.90;8.70;;;;;;;7.26;72.26;95915.78;109956;1247;71049;-64
2022/04/09 04:26:20;;;;;;;10.00;8.80;;;;;;;7.28;72.27;95915.42;109975;1247;68645;-66
2022/04/09 04:28:54;;;;;;;12.30;9.50;;;;;;;7.32;71.37;95915.75;109987;1247;67627;-64
2022/04/09 04:31:24;;;;;;;13.80;10.00;;;;;;;7.38;71.06;95916.86;110055;1248;59708;-66
2022/04/09 04:33:55;;;;;;;12.10;8.60;;;;;;;7.46;71.02;95913.98;109884;1249;59683;-66
2022/04/09 04:36:25;;;;;;;9.60;8.60;;;;;;;7.54;71.14;95920.15;109651;1248;71339;-65
2022/04/09 04:38:55;;;;;;;12.60;10.20;;;;;;;7.65;72.14;95922.36;109957;1247;69253;-64
2022/04/09 04:41:24;;;;;;;14.00;11.00;;;;;;;7.75;72.41;95918.60;109964;1248;68482;-65
2022/04/09 04:43:54;;;;;;;;;;;;;;;7.86;71.49;95916.23;110021;1248;59718;-63
2022/04/09 04:46:28;;;;;;;10.80;9.10;;;;;;;7.99;70.60;95917.08;109828;1249;59670;-67
2022/04/09 04:48:57;;;;;;;12.10;8.30;;;;;;;8.10;70.16;95917.13;110008;1248;70759;-63
2022/04/09 04:51:27;;;;;;;13.40;9.70;;;;;;;8.19;70.26;95920.84;109845;1248;69555;-63
2022/04/09 04:53:58;;;;;;;12.10;10.40;;;;;;;8.27;70.45;95925.25;109905;1247;67659;-66
2022/04/09 04:56:28;;;;;;;13.30;10.40;;;;;;;8.35;71.76;95930.45;109877;1247;59707;-64
2022/04/09 04:58:59;;;;;;;16.60;12.50;;;;;;;8.43;72.17;95930.23;109838;1247;59720;-65
2022/04/09 05:01:28;;;;;;;16.80;12.70;;;;;;;8.51;71.76;95930.98;109960;1248;70884;-66
2022/04/09 05:04:04;;;;;;;17.60;14.60;;;;;;;8.58;71.10;95935.35;109810;1248;68597;-66
2022/04/09 05:06:37;;;;;;;18.30;14.80;;;;;;;8.65;71.21;95940.23;109887;1247;68668;-67
2022/04/09 05:09:07;;;;;;;19.60;15.80;;;;;;;8.73;70.75;95941.70;109893;1247;59761;-68
2022/04/09 05:11:46;;;;;;;15.80;13.20;;;;;;;8.80;70.31;95935.80;109894;1247;59622;-62
2022/04/09 05:14:19;;;;;;;12.10;10.00;;;;;;;8.89;69.90;95933.84;109868;1249;70803;-61
2022/04/09 05:16:52;;;;;;;16.60;13.10;;;;;;;8.98;70.57;95933.01;110048;1247;68632;-65
2022/04/09 05:19:21;;;;;;;14.30;10.60;;;;;;;9.06;70.35;95936.60;109899;1247;67525;-65
2022/04/09 05:22:06;;;;;;;14.80;10.60;;;;;;;9.15;70.26;95938.73;109857;1248;59733;-62
2022/04/09 05:24:41;;;;;;;11.60;9.00;;;;;;;9.26;69.89;95937.98;109872;1248;59693;-66
2022/04/09 05:27:11;;;;;;;15.20;12.00;;;;;;;9.36;69.18;95938.26;109959;1248;71026;-65
2022/04/09 05:29:40;;;;;;;14.10;11.70;;;;;;;9.44;68.86;95934.20;109842;1248;68924;-65
2022/04/09 05:32:11;;;;;;;14.60;11.20;;;;;;;9.50;68.59;95932.65;109724;1248;69484;-65
2022/04/09 05:34:41;;;;;;;28.10;20.50;;;;;;;9.57;68.09;95935.66;109974;1247;60069;-66
2022/04/09 05:37:10;;;;;;;24.60;15.70;;;;;;;9.68;68.22;95930.92;109882;1247;59733;-62
2022/04/09 05:39:42;;;;;;;22.90;16.60;;;;;;;9.86;68.36;95917.16;110010;1247;71578;-65
2022/04/09 05:42:11;;;;;;;27.00;18.40;;;;;;;10.09;67.55;95914.48;110022;1247;69287;-62
2022/04/09 05:44:41;;;;;;;19.30;14.20;;;;;;;10.32;67.24;95911.94;110028;1247;69986;-65
2022/04/09 05:47:11;;;;;;;13.70;10.30;;;;;;;10.54;66.72;95910.55;109964;1247;59789;-63
2022/04/09 05:49:40;;;;;;;11.10;8.30;;;;;;;10.79;66.65;95914.59;110040;1247;59865;-62
2022/04/09 05:52:10;;;;;;;13.50;9.50;;;;;;;11.05;66.36;95911.80;110098;1246;71614;-62
2022/04/09 05:54:39;;;;;;;12.10;10.00;;;;;;;11.26;64.98;95906.06;110107;1247;69587;-61
2022/04/09 05:57:09;;;;;;;11.30;9.20;;;;;;;11.43;64.26;95906.17;109850;1247;68716;-64
2022/04/09 05:59:40;;;;;;;12.20;10.40;;;;;;;11.59;63.57;95910.27;109962;1247;60120;-62
2022/04/09 06:02:10;;;;;;;10.80;9.30;;;;;;;11.73;63.17;95907.95;110105;1246;59696;-62
2022/04/09 06:04:40;;;;;;;10.60;8.40;;;;;;;11.89;63.96;95910.22;109905;1247;71658;-62
2022/04/09 06:07:11;;;;;;;10.50;9.10;;;;;;;12.01;62.82;95911.86;109944;1247;68771;-64
2022/04/09 06:09:46;;;;;;;12.60;10.30;;;;;;;12.07;61.30;95913.98;110065;1247;67622;-68
2022/04/09 06:12:18;;;;;;;14.00;10.50;;;;;;;12.19;62.39;95906.06;110051;1246;59692;-61
2022/04/09 06:14:55;;;;;;;12.20;11.00;;;;;;;12.31;61.86;95904.21;109976;1247;59660;-62
2022/04/09 06:17:26;;;;;;;11.30;9.90;;;;;;;12.43;61.64;95904.02;110117;1247;70738;-62
2022/04/09 06:19:55;;;;;;;14.00;11.70;;;;;;;12.58;60.19;95905.08;109939;1247;68540;-67
2022/04/09 06:22:24;;;;;;;16.80;13.00;;;;;;;12.73;60.24;95910.47;110041;1247;69575;-64
2022/04/09 06:24:53;;;;;;;10.70;9.60;;;;;;;12.84;60.14;95912.17;109965;1248;59742;-62
2022/04/09 06:27:25;;;;;;;12.90;11.40;;;;;;;12.96;60.28;95909.23;109335;1247;676803;-62
2022/04/09 06:29:54;;;;;;;;;;;;;;;13.10;57.89;95913.84;109850;1248;71586;-62
2022/04/09 06:32:24;;;;;;;10.40;8.20;;;;;;;13.21;56.78;95916.21;109939;1248;68632;-62
2022/04/09 06:34:54;;;;;;;10.50;8.40;;;;;;;13.30;56.06;95924.05;110070;1247;70155;-63
2022/04/09 06:37:25;;;;;;;12.10;9.70;;;;;;;13.27;55.65;95929.48;109844;1247;59819;-64
2022/04/09 06:39:56;;;;;;;9.70;8.10;;;;;;;13.24;55.61;95930.23;110045;1247;59774;-63
2022/04/09 06:42:27;;;;;;;12.10;8.50;;;;;;;13.12;55.67;95932.23;109884;1248;71853;-63
2022/04/09 06:45:28;;;;;;;11.30;7.50;;;;;;;13.11;56.11;95934.48;109700;1248;69422;-61
2022/04/09 06:48:36;;;;;;;11.20;8.60;;;;;;;13.06;56.34;95932.67;109501;1251;69788;-61
2022/04/09 06:51:24;;;;;;;11.10;8.40;;;;;;;13.07;56.49;95931.02;109499;1252;59732;-63
2022/04/09 06:53:57;;;;;;;10.60;8.60;;;;;;;13.07;56.70;95931.05;109646;1248;59735;-62
2022/04/09 06:56:27;;;;;;;10.00;8.60;;;;;;;13.13;56.71;95925.27;109885;1248;70814;-62
2022/04/09 06:58:56;;;;;;;12.10;8.20;;;;;;;13.15;56.52;95919.30;109801;1249;69407;-62
2022/04/09 07:01:26;;;;;;;9.60;7.80;;;;;;;13.21;56.76;95914.05;109940;1247;68703;-64
2022/04/09 07:03:57;;;;;;;10.30;7.40;;;;;;;13.32;56.72;95916.61;109870;1248;59825;-64
2022/04/09 07:06:26;;;;;;;8.10;6.20;;;;;;;13.39;56.17;95920.77;109998;1247;59704;-62
2022/04/09 07:08:56;;;;;;;;;;;;;;;13.48;56.11;95919.79;109929;1249;70871;-65
2022/04/09 07:11:27;;;;;;;11.40;7.10;;;;;;;13.55;55.52;95923.13;109980;1248;68693;-63
2022/04/09 07:13:56;;;;;;;8.00;5.70;;;;;;;13.57;55.61;95917.95;109962;1248;69412;-63
2022/04/09 07:16:26;;;;;;;8.60;6.00;;;;;;;13.63;55.28;95913.80;109953;1248;59698;-64
2022/04/09 07:18:55;;;;;;;7.50;5.50;;;;;;;13.68;55.61;95915.17;109967;1247;59710;-67
2022/04/09 07:21:24;;;;;;;6.40;5.20;;;;;;;13.86;54.93;95918.67;109959;1248;71696;-64
2022/04/09 07:23:54;;;;;;;5.90;4.20;;;;;;;13.97;54.75;95917.96;109966;1248;68605;-63
2022/04/09 07:26:23;;;;;;;6.80;5.10;;;;;;;14.19;54.49;95914.48;110027;1247;69554;-64
2022/04/09 07:28:53;;;;;;;6.40;4.80;;;;;;;14.25;54.31;95911.72;110007;1247;59745;-68
2022/04/09 07:31:23;;;;;;;6.90;5.60;;;;;;;14.32;53.97;95921.98;110029;1248;59666;-67
2022/04/09 07:33:52;;;;;;;8.80;6.20;;;;;;;14.34;53.88;95913.88;110109;1247;72549;-65
2022/04/09 07:36:21;;;;;;;9.30;6.60;;;;;;;14.35;53.73;95911.81;110080;1247;68648;-64
2022/04/09 07:38:51;;;;;;;6.00;4.30;;;;;;;14.46;53.65;95905.65;110083;1247;68689;-62
2022/04/09 07:41:20;;;;;;;6.20;4.80;;;;;;;14.52;53.90;95897.13;110054;1247;59829;-64
2022/04/09 07:43:49;;;;;;;6.80;4.80;;;;;;;14.68;53.52;95900.03;109875;1248;60049;-65
2022/04/09 07:46:19;;;;;;;7.30;4.70;;;;;;;14.92;53.33;95898.59;110062;1247;70924;-63
2022/04/09 07:48:48;;;;;;;6.10;4.00;;;;;;;15.08;51.98;95905.00;110082;1247;68713;-62
2022/04/09 07:51:17;;;;;;;5.30;4.00;;;;;;;15.26;51.45;95899.95;110084;1246;68711;-65
2022/04/09 07:53:46;;;;;;;5.50;3.80;;;;;;;15.58;50.67;95896.76;110053;1247;59774;-63
2022/04/09 07:56:16;;;;;;;4.40;3.80;;;;;;;15.94;50.25;95897.42;110067;1247;59654;-63
2022/04/09 07:58:45;;;;;;;5.50;3.60;;;;;;;16.27;49.23;95894.05;110042;1247;70969;-66
2022/04/09 08:01:14;;;;;;;4.40;3.10;;;;;;;16.49;48.59;95901.70;110073;1247;69355;-65
2022/04/09 08:03:44;;;;;;;6.00;3.20;;;;;;;16.54;47.80;95901.67;109936;1248;69271;-62
2022/04/09 08:06:13;;;;;;;4.60;3.70;;;;;;;16.51;47.79;95899.25;110055;1247;59765;-65
2022/04/09 08:08:42;;;;;;;5.90;3.40;;;;;;;16.61;47.72;95892.35;110062;1247;59698;-64
2022/04/09 08:11:11;;;;;;;4.90;3.00;;;;;;;16.72;47.01;95891.79;110109;1247;70824;-65
2022/04/09 08:13:40;;;;;;;4.00;2.90;;;;;;;16.41;47.29;95898.63;110089;1247;68728;-65
2022/04/09 08:16:11;;;;;;;3.90;2.80;;;;;;;16.29;47.78;95897.00;109760;1249;68802;-64
2022/04/09 08:18:40;;;;;;;3.70;2.60;;;;;;;15.92;48.67;95901.73;109726;1248;59791;-64
2022/04/09 08:21:09;;;;;;;4.60;2.90;;;;;;;15.95;48.97;95904.13;110058;1247;59646;-64
2022/04/09 08:23:39;;;;;;;7.10;3.30;;;;;;;16.03;49.12;95902.98;110091;1247;70782;-67
2022/04/09 08:26:08;;;;;;;5.90;3.10;;;;;;;16.18;48.75;95902.49;110104;1247;68683;-65
2022/04/09 08:28:39;;;;;;;4.80;3.00;;;;;;;16.10;48.62;95898.17;110020;1245;69865;-65
2022/04/09 08:31:08;;;;;;;5.50;2.90;;;;;;;15.98;48.56;95895.66;110054;1247;59710;-64
2022/04/09 08:33:40;;;;;;;4.40;2.70;;;;;;;16.26;48.06;95891.20;110055;1247;59725;-68
2022/04/09 08:36:10;;;;;;;3.20;2.90;;;;;;;16.47;47.78;95886.48;110148;1247;71398;-63
2022/04/09 08:38:39;;;;;;;8.80;4.40;;;;;;;16.80;47.47;95893.27;109804;1249;68617;-66
2022/04/09 08:41:09;;;;;;;6.30;3.60;;;;;;;17.27;46.16;95892.35;110074;1247;68838;-63
2022/04/09 08:43:39;;;;;;;4.70;3.60;;;;;;;17.32;45.00;95894.23;109881;1248;59746;-63
2022/04/09 08:46:08;;;;;;;6.10;3.70;;;;;;;17.29;45.16;95898.01;110050;1247;59739;-63
2022/04/09 08:48:38;;;;;;;4.10;3.60;;;;;;;17.04;45.48;95889.22;110076;1247;71642;-62
2022/04/09 08:51:07;;;;;;;5.00;3.90;;;;;;;16.98;45.46;95890.93;109930;1247;68808;-63
2022/04/09 08:54:02;;;;;;;4.60;3.80;;;;;;;17.08;45.47;95891.89;109976;1247;68722;-63
2022/04/09 08:56:37;;;;;;;4.80;3.90;;;;;;;17.60;45.21;95887.94;109834;1248;59823;-62
2022/04/09 08:59:06;;;;;;;5.20;4.40;;;;;;;17.84;44.13;95882.52;110035;1247;59782;-63
2022/04/09 09:01:35;;;;;;;5.10;4.10;;;;;;;17.31;44.73;95894.77;110053;1247;70736;-63
2022/04/09 09:04:05;;;;;;;5.00;4.40;;;;;;;16.90;45.59;95891.84;110101;1247;69545;-64
2022/04/09 09:06:39;;;;;;;7.80;5.00;;;;;;;16.73;46.24;95886.07;109781;1248;68637;-64
2022/04/09 09:09:26;;;;;;;5.80;4.60;;;;;;;16.47;47.05;95884.36;110026;1247;59703;-62
2022/04/09 09:11:57;;;;;;;5.20;4.20;;;;;;;16.54;47.13;95884.84;110044;1247;59639;-65
2022/04/09 09:14:32;;;;;;;5.60;4.20;;;;;;;16.52;47.36;95883.61;110057;1247;71528;-65
2022/04/09 09:17:03;;;;;;;4.90;3.80;;;;;;;16.40;47.98;95885.48;109777;1248;69416;-68
2022/04/09 09:19:47;;;;;;;7.00;4.40;;;;;;;16.42;48.16;95883.92;109924;1248;68651;-63
2022/04/09 09:22:18;;;;;;;5.20;4.30;;;;;;;16.37;47.69;95887.97;110068;1247;59732;-64
2022/04/09 09:25:07;;;;;;;6.20;4.30;;;;;;;16.20;48.55;95886.17;109827;1249;59693;-70
2022/04/09 09:27:37;;;;;;;4.20;3.80;;;;;;;16.05;48.50;95884.81;110026;1247;71857;-67
2022/04/09 09:30:12;;;;;;;4.70;4.10;;;;;;;16.06;48.22;95883.84;110104;1247;69421;-65
2022/04/09 09:32:44;;;;;;;4.30;3.60;;;;;;;16.04;47.87;95878.83;109835;1249;68707;-66
2022/04/09 09:35:13;;;;;;;5.20;4.70;;;;;;;16.06;48.02;95884.54;109960;1249;59777;-68
2022/04/09 09:37:43;;;;;;;5.20;4.10;;;;;;;15.98;47.97;95886.87;109863;1250;59693;-68
2022/04/09 09:40:31;;;;;;;5.00;4.10;;;;;;;15.91;48.24;95876.05;110107;1247;71639;-68
2022/04/09 09:43:15;;;;;;;5.80;4.10;;;;;;;15.90;48.36;95876.85;110097;1247;69390;-63
2022/04/09 09:45:44;;;;;;;5.60;4.30;;;;;;;15.90;48.55;95875.80;109876;1249;69469;-63
2022/04/09 09:48:26;;;;;;;5.30;3.70;;;;;;;15.98;48.47;95872.38;109936;1248;59744;-63
2022/04/09 09:50:57;;;;;;;4.50;3.60;;;;;;;16.03;48.54;95875.98;109977;1249;59714;-69
2022/04/09 09:53:33;;;;;;;4.00;3.60;;;;;;;16.06;48.54;95878.30;109957;1249;71681;-68
2022/04/09 09:56:04;;;;;;;5.40;4.40;;;;;;;16.03;48.61;95873.54;109896;1249;67659;-67
2022/04/09 09:58:33;;;;;;;4.30;3.90;;;;;;;15.95;48.76;95874.32;109808;1249;68638;-60
2022/04/09 10:01:18;;;;;;;4.50;3.60;;;;;;;15.83;48.86;95876.02;109773;1249;59725;-63
2022/04/09 10:03:48;;;;;;;5.10;3.70;;;;;;;15.75;48.96;95882.27;109935;1249;59750;-63
2022/04/09 10:06:18;;;;;;;8.80;7.90;;;;;;;15.70;49.04;95869.29;109994;1247;71434;-67
2022/04/09 10:08:47;;;;;;;6.40;4.10;;;;;;;15.73;49.07;95872.30;110051;1247;67927;-62
2022/04/09 10:11:19;;;;;;;5.90;3.80;;;;;;;15.62;49.15;95875.15;109824;1250;69542;-64
2022/04/09 10:13:49;;;;;;;7.60;4.80;;;;;;;15.61;49.30;95873.02;109880;1248;59631;-64
2022/04/09 10:16:21;;;;;;;6.40;4.20;;;;;;;15.68;49.32;95867.30;109841;1249;59749;-68
2022/04/09 10:18:54;;;;;;;4.40;3.80;;;;;;;15.81;49.05;95868.42;109786;1249;71640;-65
2022/04/09 10:21:31;;;;;;;5.70;3.70;;;;;;;15.88;48.91;95875.63;109900;1248;68615;-63
2022/04/09 10:24:04;;;;;;;5.50;4.30;;;;;;;15.91;48.79;95872.21;109877;1248;70119;-64
2022/04/09 10:26:33;;;;;;;6.40;5.00;;;;;;;16.04;48.51;95870.43;109772;1249;59745;-66
2022/04/09 10:29:06;;;;;;;4.20;3.70;;;;;;;15.96;48.67;95870.85;109841;1248;59691;-67
2022/04/09 10:31:37;;;;;;;8.20;4.20;;;;;;;15.92;48.91;95870.31;109935;1249;70532;-63
2022/04/09 10:34:16;;;;;;;6.50;4.50;;;;;;;15.90;49.02;95875.57;110037;1247;68840;-68
2022/04/09 10:36:45;;;;;;;5.30;3.70;;;;;;;15.84;48.85;95880.23;110107;1247;68805;-63
2022/04/09 10:39:45;;;;;;;4.70;4.00;;;;;;;15.81;49.19;95880.73;110001;1247;59674;-63
2022/04/09 10:42:50;;;;;;;5.90;3.80;;;;;;;15.75;49.63;95871.79;110135;1246;59757;-62
2022/04/09 10:45:19;;;;;;;5.70;3.90;;;;;;;15.84;49.56;95866.14;110058;1247;70873;-63
2022/04/09 10:48:11;;;;;;;6.70;4.40;;;;;;;15.94;49.56;95867.59;110097;1247;69380;-64
2022/04/09 10:51:04;;;;;;;4.50;3.90;;;;;;;16.01;49.12;95869.31;110081;1246;68661;-67
2022/04/09 10:53:45;;;;;;;5.10;3.90;;;;;;;16.10;49.00;95874.64;110146;1247;60059;-63
2022/04/09 10:56:32;;;;;;;5.10;4.00;;;;;;;16.22;48.64;95869.45;110135;1247;59650;-62
2022/04/09 10:59:13;;;;;;;4.20;3.30;;;;;;;16.43;48.88;95871.56;110100;1247;71050;-63
2022/04/09 11:01:54;;;;;;;3.90;3.20;;;;;;;16.59;48.63;95872.06;110163;1247;68568;-62
2022/04/09 11:04:31;;;;;;;6.00;3.50;;;;;;;16.68;48.26;95875.31;110077;1246;68627;-62
2022/04/09 11:07:09;;;;;;;4.10;3.30;;;;;;;16.73;48.08;95880.61;110066;1247;59760;-63
2022/04/09 11:10:04;;;;;;;6.20;4.00;;;;;;;16.71;47.86;95879.57;110130;1247;59818;-63
2022/04/09 11:12:39;;;;;;;4.30;3.60;;;;;;;16.70;47.42;95873.90;110087;1247;71503;-65
2022/04/09 11:15:11;;;;;;;6.00;4.30;;;;;;;16.71;47.80;95871.77;110126;1247;69404;-64
2022/04/09 11:17:45;;;;;;;4.50;3.20;;;;;;;16.73;47.50;95871.63;110133;1245;69504;-63
2022/04/09 11:20:20;;;;;;;6.50;3.30;;;;;;;16.64;47.58;95873.35;110055;1247;59747;-63
2022/04/09 11:22:54;;;;;;;6.70;3.80;;;;;;;16.66;48.06;95873.85;110045;1247;59685;-62
2022/04/09 11:25:30;;;;;;;4.20;3.50;;;;;;;16.66;47.93;95877.34;110080;1248;70850;-66
2022/04/09 11:28:05;;;;;;;5.10;3.90;;;;;;;16.73;48.29;95876.38;110054;1247;67634;-62
2022/04/09 11:30:34;;;;;;;;;;;;;;;17.01;48.48;95871.84;110128;1247;68703;-69
2022/04/09 11:33:04;;;;;;;5.10;3.50;;;;;;;17.83;47.09;95869.89;110127;1247;59659;-64
2022/04/09 11:35:34;;;;;;;5.60;4.10;;;;;;;18.85;44.82;95877.08;110151;1247;59652;-69
2022/04/09 11:38:09;;;;;;;5.00;4.40;;;;;;;19.64;45.14;95874.36;110147;1247;70975;-66
2022/04/09 11:40:46;;;;;;;7.60;5.00;;;;;;;20.28;42.23;95872.97;110103;1247;69566;-64
2022/04/09 11:43:16;;;;;;;6.00;4.10;;;;;;;21.04;41.49;95878.42;110123;1247;68780;-63
2022/04/09 11:45:46;;;;;;;6.10;4.60;;;;;;;22.20;39.79;95869.30;110049;1247;59683;-63
2022/04/09 11:48:25;;;;;;;5.90;4.20;;;;;;;23.17;37.94;95869.85;110071;1247;59735;-68
2022/04/09 11:50:55;;;;;;;7.30;4.90;;;;;;;23.55;35.51;95868.94;109776;1249;70795;-68